الصفحة الرئيسية
METAR-TAF:

METAR-TAF

مطار :

كوزاني, اليونان

دائرة عرض: 40-18N, خط طول: 021-47E, ارتفاع: 634 متر

مراقبة الطقس الحالي

تاريخ ووقت الإصدار 40 دقيقة قبل الساعة 16:50UTC
ريح 8 عقدة من الشمال/الشمال الغربي, الاتجاه يتراوح بين الغرب/الشمال الغربي و الشمال الشرقي
درجة الحرارة 0°درجة مئوية
الرطوبة 100%
ضغط 1009 hPa
ثلوج خفيفة

METAR: LGKZ 011650Z AUTO 34008KT 290V040 //// -SN ////// M00/M00 Q1009 RE//

زمن: 20:30 (17:30 UTC)


TAF: مفقودة

أرصاد الطقس والتوقعات من أكثر من 4000 مطار (تقارير الطقس للمطار METAR والتنبؤ بالطقس بالمطارTAF).

المحطات المتاحة هي النقط الصفراء والحمراء على الخريطة.

حرك المؤشر فوق النقطة لمعرفة اسم المحطة.

ثم انقر لمعرفة أرصاد وتوقعات الطقس.

لتغيير الخارطة: اضغط على الأزرار الخضراء مع رمز الصليب الأسود للتكبير. على الزر الأخضر مع شرطة للتصغير، أو على الأسهم الخضراء للخرائط المجاورة.


METAR-TAF: